createdAt,value
2024-02-23T01:26:43.243Z,1.85
2024-02-23T01:33:26.209Z,1.02
2024-02-23T01:40:09.082Z,0.90
2024-02-23T01:46:51.766Z,1.30
2024-02-23T01:53:34.194Z,0.95
2024-02-23T02:00:18.630Z,1.15
2024-02-23T02:07:07.492Z,1.10
2024-02-23T02:13:49.856Z,0.85
2024-02-23T02:20:34.457Z,1.10
2024-02-23T02:27:16.870Z,1.10
2024-02-23T02:33:59.435Z,1.27
2024-02-23T02:40:41.968Z,1.25
2024-02-23T02:47:24.949Z,0.88
2024-02-23T02:54:07.374Z,1.30
2024-02-23T03:00:49.788Z,1.40
2024-02-23T03:07:32.084Z,1.30
2024-02-23T03:14:14.461Z,1.10
2024-02-23T03:20:57.136Z,1.30
2024-02-23T03:27:39.628Z,1.00
2024-02-23T03:34:22.235Z,1.00
2024-02-23T03:41:04.873Z,1.08
2024-02-23T03:47:47.593Z,1.17
2024-02-23T03:54:29.983Z,1.08
2024-02-23T04:01:12.404Z,0.80
2024-02-23T04:07:54.812Z,1.02
2024-02-23T04:14:37.303Z,1.10
2024-02-23T04:21:20.102Z,1.10
2024-02-23T04:28:02.897Z,1.05
2024-02-23T04:34:45.402Z,1.02
2024-02-23T04:41:27.847Z,1.25
2024-02-23T04:48:10.494Z,1.13
2024-02-23T04:54:52.958Z,0.80
2024-02-23T05:01:38.606Z,1.10
2024-02-23T05:08:22.047Z,1.30
2024-02-23T05:15:04.780Z,1.00
2024-02-23T05:21:47.176Z,0.88
2024-02-23T05:28:29.931Z,1.38
2024-02-23T05:35:13.330Z,1.17
2024-02-23T05:41:56.114Z,0.90
2024-02-23T05:48:38.759Z,1.45
2024-02-23T05:55:21.291Z,1.35
2024-02-23T06:02:04.054Z,1.25
2024-02-23T06:08:47.150Z,1.05
2024-02-23T06:15:29.836Z,1.25
2024-02-23T06:22:12.835Z,1.27
2024-02-23T06:28:55.647Z,2.80
2024-02-23T06:35:39.008Z,2.40
2024-02-23T06:42:22.071Z,2.92
2024-02-23T06:49:05.474Z,2.80
2024-02-23T06:55:48.093Z,2.88
2024-02-23T07:02:32.459Z,3.28
2024-02-23T07:09:14.928Z,2.80
2024-02-23T07:15:59.061Z,2.55
2024-02-23T07:22:46.793Z,2.33
2024-02-23T07:29:29.595Z,2.08
2024-02-23T07:36:16.104Z,1.83
2024-02-23T07:42:58.663Z,1.35
2024-02-23T07:49:41.690Z,1.25
2024-02-23T07:56:24.426Z,1.40
2024-02-23T08:03:08.653Z,1.27
2024-02-23T08:09:52.388Z,1.75
2024-02-23T08:16:35.279Z,1.40
2024-02-23T08:23:19.733Z,1.30
2024-02-23T08:30:03.024Z,1.23
2024-02-23T08:36:46.399Z,1.42
2024-02-23T08:43:29.639Z,1.40
2024-02-23T08:50:12.584Z,1.58
2024-02-23T08:56:56.275Z,1.50
2024-02-23T09:03:38.860Z,1.40
2024-02-23T09:10:21.529Z,1.35
2024-02-23T09:17:05.300Z,1.70
2024-02-23T09:23:52.674Z,2.35
2024-02-23T09:30:40.538Z,1.42
2024-02-23T09:37:24.801Z,1.60
2024-02-23T09:44:11.371Z,2.08
2024-02-23T09:50:58.778Z,1.50
2024-02-23T09:57:42.732Z,1.75
2024-02-23T10:04:27.683Z,1.40
2024-02-23T10:11:10.724Z,1.38
2024-02-23T10:17:55.032Z,1.10
2024-02-23T10:24:40.703Z,1.63
2024-02-23T10:31:26.254Z,2.17
2024-02-23T10:38:12.751Z,1.40
2024-02-23T10:44:56.490Z,1.00
2024-02-23T10:51:41.497Z,1.25
2024-02-23T10:58:25.887Z,1.38
2024-02-23T11:05:14.993Z,1.65
2024-02-23T11:12:05.739Z,1.50
2024-02-23T11:18:48.896Z,1.80
2024-02-23T11:25:35.481Z,1.65
2024-02-23T11:32:24.933Z,1.35
2024-02-23T11:39:14.822Z,1.48
2024-02-23T11:46:00.070Z,1.90
2024-02-23T11:52:42.709Z,2.10
2024-02-23T11:59:26.476Z,1.70
2024-02-23T12:06:15.367Z,1.77
2024-02-23T12:13:01.861Z,1.80
2024-02-23T12:19:47.760Z,1.55
2024-02-23T12:26:30.209Z,1.60
2024-02-23T12:33:31.516Z,2.03
2024-02-23T12:40:24.493Z,1.60
2024-02-23T12:47:17.432Z,1.80
2024-02-23T12:54:02.952Z,1.80
2024-02-23T13:00:55.091Z,1.58
2024-02-23T13:07:43.774Z,2.05
2024-02-23T13:14:30.518Z,1.60
2024-02-23T13:21:15.518Z,1.55
2024-02-23T13:28:01.713Z,1.73
2024-02-23T13:34:46.305Z,1.88
2024-02-23T13:41:31.230Z,1.50
2024-02-23T13:48:18.464Z,1.77
2024-02-23T13:55:01.363Z,1.77
2024-02-23T14:01:45.765Z,2.40
2024-02-23T14:08:28.426Z,2.50
2024-02-23T14:15:11.869Z,1.92
2024-02-23T14:21:54.558Z,1.83
2024-02-23T14:28:37.440Z,2.10
2024-02-23T14:35:21.687Z,2.30
2024-02-23T14:42:04.683Z,1.60
2024-02-23T14:48:49.275Z,1.95
2024-02-23T14:55:32.356Z,2.13
2024-02-23T15:02:20.994Z,1.90
2024-02-23T15:09:04.208Z,1.88
2024-02-23T15:15:46.777Z,2.22
2024-02-23T15:22:30.369Z,2.25
2024-02-23T15:29:13.246Z,1.67
2024-02-23T15:35:56.455Z,2.00
2024-02-23T15:42:39.596Z,1.90
2024-02-23T15:49:36.145Z,2.13
2024-02-23T15:56:26.131Z,2.90
2024-02-23T16:03:08.935Z,2.95
2024-02-23T16:09:51.667Z,6.60
2024-02-23T16:16:34.667Z,2.88
2024-02-23T16:23:17.426Z,2.25
2024-02-23T16:30:00.523Z,2.33
2024-02-23T16:36:46.138Z,2.10
2024-02-23T16:43:28.557Z,3.47
2024-02-23T16:50:11.016Z,2.00
2024-02-23T16:56:54.038Z,1.80
2024-02-23T17:03:37.006Z,3.10
2024-02-23T17:10:19.698Z,2.25
2024-02-23T17:17:05.008Z,2.60
2024-02-23T17:23:47.606Z,2.40
2024-02-23T17:30:30.954Z,2.22
2024-02-23T17:37:13.568Z,2.38
2024-02-23T17:43:56.011Z,2.67
2024-02-23T17:50:38.444Z,2.40
2024-02-23T17:57:22.008Z,2.67
2024-02-23T18:04:05.400Z,2.30
2024-02-23T18:10:48.182Z,3.13
2024-02-23T18:17:30.927Z,3.08
2024-02-23T18:24:14.189Z,2.63
2024-02-23T18:30:58.183Z,2.42
2024-02-23T18:37:40.912Z,2.90
2024-02-23T18:44:23.574Z,2.53
2024-02-23T18:51:06.873Z,2.67
2024-02-23T18:57:50.192Z,2.40
2024-02-23T19:04:33.980Z,2.58
2024-02-23T19:11:16.730Z,2.35
2024-02-23T19:18:00.768Z,2.50
2024-02-23T19:24:43.544Z,3.92
2024-02-23T19:31:26.781Z,2.45
2024-02-23T19:38:09.563Z,2.40
2024-02-23T19:44:55.145Z,4.35
2024-02-23T19:51:38.590Z,2.33
2024-02-23T19:58:21.389Z,2.47
2024-02-23T20:05:04.424Z,2.70
2024-02-23T20:11:48.669Z,2.33
2024-02-23T20:18:32.081Z,2.80
2024-02-23T20:25:14.955Z,2.80
2024-02-23T20:31:57.780Z,2.20
2024-02-23T20:38:40.647Z,3.05
2024-02-23T20:45:23.330Z,2.50
2024-02-23T20:52:06.883Z,2.88
2024-02-23T20:58:51.069Z,3.53
2024-02-23T21:05:36.516Z,3.60
2024-02-23T21:12:19.387Z,3.67
2024-02-23T21:19:02.722Z,3.63
2024-02-23T21:25:45.561Z,3.35
2024-02-23T21:32:30.554Z,4.75
2024-02-23T21:39:13.535Z,3.80
2024-02-23T21:45:56.217Z,3.72
2024-02-23T21:52:38.854Z,3.95
2024-02-23T21:59:21.848Z,3.33
2024-02-23T22:06:04.732Z,3.42
2024-02-23T22:12:47.444Z,3.25
2024-02-23T22:19:30.104Z,3.92
2024-02-23T22:26:12.889Z,4.10
2024-02-23T22:32:55.698Z,4.55
2024-02-23T22:39:38.657Z,4.63
2024-02-23T22:46:21.326Z,3.90
2024-02-23T22:53:05.560Z,4.03
2024-02-23T22:59:48.162Z,3.00
2024-02-23T23:06:35.052Z,3.40
2024-02-23T23:13:18.554Z,3.15
2024-02-23T23:20:05.399Z,3.30
2024-02-23T23:26:48.155Z,3.20
2024-02-23T23:33:30.808Z,4.95
2024-02-23T23:40:14.539Z,5.35
2024-02-23T23:46:57.825Z,3.90
2024-02-23T23:53:40.524Z,4.63
